sensor_id;sensor_type;location;lat;lon;timestamp;pressure;altitude;pressure_sealevel;temperature;humidity
9672;BME280;4874;43.568;27.824;2023-01-08T00:00:18;99669.09;;;4.19;100.00
9672;BME280;4874;43.568;27.824;2023-01-08T00:02:45;99672.28;;;4.39;100.00
9672;BME280;4874;43.568;27.824;2023-01-08T00:05:15;99683.19;;;4.18;100.00
9672;BME280;4874;43.568;27.824;2023-01-08T00:07:43;99681.47;;;4.17;100.00
9672;BME280;4874;43.568;27.824;2023-01-08T00:10:10;99688.84;;;4.26;100.00
9672;BME280;4874;43.568;27.824;2023-01-08T00:12:37;99691.94;;;3.72;100.00
9672;BME280;4874;43.568;27.824;2023-01-08T00:15:04;99693.69;;;3.55;100.00
9672;BME280;4874;43.568;27.824;2023-01-08T00:17:32;99686.19;;;3.65;100.00
9672;BME280;4874;43.568;27.824;2023-01-08T00:19:58;99694.97;;;3.80;100.00
9672;BME280;4874;43.568;27.824;2023-01-08T00:22:25;99692.53;;;4.08;100.00
9672;BME280;4874;43.568;27.824;2023-01-08T00:24:57;99690.22;;;4.17;100.00
9672;BME280;4874;43.568;27.824;2023-01-08T00:27:24;99697.44;;;4.14;100.00
9672;BME280;4874;43.568;27.824;2023-01-08T00:29:51;99703.25;;;4.19;100.00
9672;BME280;4874;43.568;27.824;2023-01-08T00:32:18;99697.22;;;4.32;100.00
9672;BME280;4874;43.568;27.824;2023-01-08T00:34:47;99690.22;;;4.17;100.00
9672;BME280;4874;43.568;27.824;2023-01-08T00:37:22;99675.84;;;3.78;100.00
9672;BME280;4874;43.568;27.824;2023-01-08T00:39:50;99687.94;;;4.11;100.00
9672;BME280;4874;43.568;27.824;2023-01-08T00:42:17;99692.06;;;4.15;100.00
9672;BME280;4874;43.568;27.824;2023-01-08T00:44:44;99703.06;;;4.37;100.00
9672;BME280;4874;43.568;27.824;2023-01-08T00:47:11;99700.03;;;4.29;100.00
9672;BME280;4874;43.568;27.824;2023-01-08T00:49:40;99698.94;;;4.33;100.00
9672;BME280;4874;43.568;27.824;2023-01-08T00:52:07;99684.44;;;4.56;100.00
9672;BME280;4874;43.568;27.824;2023-01-08T00:54:34;99703.97;;;4.82;100.00
9672;BME280;4874;43.568;27.824;2023-01-08T00:57:02;99697.44;;;4.59;100.00
9672;BME280;4874;43.568;27.824;2023-01-08T00:59:29;99691.91;;;4.63;100.00
9672;BME280;4874;43.568;27.824;2023-01-08T01:01:56;99693.06;;;4.88;100.00
9672;BME280;4874;43.568;27.824;2023-01-08T01:04:25;99713.84;;;4.92;100.00
9672;BME280;4874;43.568;27.824;2023-01-08T01:06:51;99705.38;;;4.87;100.00
9672;BME280;4874;43.568;27.824;2023-01-08T01:09:18;99706.91;;;4.61;100.00
9672;BME280;4874;43.568;27.824;2023-01-08T01:11:45;99706.13;;;4.89;100.00
9672;BME280;4874;43.568;27.824;2023-01-08T01:14:12;99702.22;;;4.66;100.00
9672;BME280;4874;43.568;27.824;2023-01-08T01:16:39;99703.50;;;4.59;100.00
9672;BME280;4874;43.568;27.824;2023-01-08T01:19:07;99683.81;;;4.52;100.00
9672;BME280;4874;43.568;27.824;2023-01-08T01:21:34;99699.56;;;4.52;100.00
9672;BME280;4874;43.568;27.824;2023-01-08T01:24:03;99700.88;;;4.59;100.00
9672;BME280;4874;43.568;27.824;2023-01-08T01:26:33;99684.31;;;4.73;100.00
9672;BME280;4874;43.568;27.824;2023-01-08T01:29:01;99660.03;;;4.54;100.00
9672;BME280;4874;43.568;27.824;2023-01-08T01:31:28;99680.31;;;4.82;100.00
9672;BME280;4874;43.568;27.824;2023-01-08T01:33:55;99655.03;;;4.93;100.00
9672;BME280;4874;43.568;27.824;2023-01-08T01:36:24;99683.88;;;4.95;100.00
9672;BME280;4874;43.568;27.824;2023-01-08T01:38:53;99664.53;;;5.10;100.00
9672;BME280;4874;43.568;27.824;2023-01-08T01:41:30;99681.03;;;4.83;100.00
9672;BME280;4874;43.568;27.824;2023-01-08T01:43:59;99670.47;;;5.13;100.00
9672;BME280;4874;43.568;27.824;2023-01-08T01:46:36;99677.06;;;5.20;100.00
9672;BME280;4874;43.568;27.824;2023-01-08T01:49:23;99675.25;;;5.35;100.00
9672;BME280;4874;43.568;27.824;2023-01-08T01:51:53;99673.00;;;5.43;100.00
9672;BME280;4874;43.568;27.824;2023-01-08T01:54:22;99666.78;;;5.30;100.00
9672;BME280;4874;43.568;27.824;2023-01-08T01:56:49;99671.78;;;5.34;100.00
9672;BME280;4874;43.568;27.824;2023-01-08T01:59:16;99672.91;;;5.30;100.00
9672;BME280;4874;43.568;27.824;2023-01-08T02:01:43;99669.50;;;5.56;100.00
9672;BME280;4874;43.568;27.824;2023-01-08T02:04:12;99669.13;;;5.62;100.00
9672;BME280;4874;43.568;27.824;2023-01-08T02:15:26;99661.41;;;6.14;100.00
9672;BME280;4874;43.568;27.824;2023-01-08T02:18:01;99650.72;;;6.03;100.00
9672;BME280;4874;43.568;27.824;2023-01-08T02:20:39;99646.03;;;5.94;100.00
9672;BME280;4874;43.568;27.824;2023-01-08T02:28:54;99660.09;;;6.07;100.00
9672;BME280;4874;43.568;27.824;2023-01-08T02:31:25;99656.72;;;6.05;100.00
9672;BME280;4874;43.568;27.824;2023-01-08T02:33:52;99645.25;;;6.06;100.00
9672;BME280;4874;43.568;27.824;2023-01-08T02:36:36;99652.41;;;6.31;100.00
9672;BME280;4874;43.568;27.824;2023-01-08T02:39:14;99647.97;;;6.31;100.00
9672;BME280;4874;43.568;27.824;2023-01-08T02:47:29;99651.75;;;6.27;100.00
9672;BME280;4874;43.568;27.824;2023-01-08T02:52:37;99653.28;;;6.17;100.00
9672;BME280;4874;43.568;27.824;2023-01-08T02:55:05;99650.72;;;6.03;100.00
9672;BME280;4874;43.568;27.824;2023-01-08T02:57:32;99656.59;;;5.94;100.00
9672;BME280;4874;43.568;27.824;2023-01-08T03:00:00;99651.75;;;6.01;100.00
9672;BME280;4874;43.568;27.824;2023-01-08T03:02:30;99643.19;;;5.97;100.00
9672;BME280;4874;43.568;27.824;2023-01-08T03:05:04;99658.78;;;5.87;100.00
9672;BME280;4874;43.568;27.824;2023-01-08T03:07:33;99649.31;;;5.97;100.00
9672;BME280;4874;43.568;27.824;2023-01-08T03:10:00;99644.38;;;5.79;100.00
9672;BME280;4874;43.568;27.824;2023-01-08T03:12:43;99644.47;;;5.77;100.00
9672;BME280;4874;43.568;27.824;2023-01-08T03:15:19;99650.56;;;5.92;100.00
9672;BME280;4874;43.568;27.824;2023-01-08T03:17:49;99648.00;;;6.17;100.00
9672;BME280;4874;43.568;27.824;2023-01-08T03:20:21;99652.19;;;6.07;100.00
9672;BME280;4874;43.568;27.824;2023-01-08T03:22:52;99643.25;;;6.10;100.00
9672;BME280;4874;43.568;27.824;2023-01-08T03:25:22;99644.56;;;6.17;100.00
9672;BME280;4874;43.568;27.824;2023-01-08T03:27:55;99653.53;;;6.27;100.00
9672;BME280;4874;43.568;27.824;2023-01-08T03:30:23;99651.44;;;6.05;100.00
9672;BME280;4874;43.568;27.824;2023-01-08T03:32:52;99647.84;;;6.20;100.00
9672;BME280;4874;43.568;27.824;2023-01-08T03:35:21;99620.88;;;6.03;100.00
9672;BME280;4874;43.568;27.824;2023-01-08T03:37:58;99655.44;;;6.25;100.00
9672;BME280;4874;43.568;27.824;2023-01-08T03:40:34;99634.81;;;6.44;100.00
9672;BME280;4874;43.568;27.824;2023-01-08T03:43:02;99645.59;;;6.53;100.00
9672;BME280;4874;43.568;27.824;2023-01-08T03:45:30;99642.50;;;6.47;100.00
9672;BME280;4874;43.568;27.824;2023-01-08T03:47:58;99639.59;;;6.51;100.00
9672;BME280;4874;43.568;27.824;2023-01-08T03:50:29;99645.25;;;6.45;100.00
9672;BME280;4874;43.568;27.824;2023-01-08T03:52:57;99657.22;;;6.24;100.00
9672;BME280;4874;43.568;27.824;2023-01-08T03:55:26;99648.81;;;6.32;100.00
9672;BME280;4874;43.568;27.824;2023-01-08T03:57:52;99640.31;;;6.41;100.00
9672;BME280;4874;43.568;27.824;2023-01-08T04:00:19;99647.13;;;6.70;100.00
9672;BME280;4874;43.568;27.824;2023-01-08T04:02:46;99642.13;;;6.53;100.00
9672;BME280;4874;43.568;27.824;2023-01-08T04:05:12;99640.66;;;6.74;100.00
9672;BME280;4874;43.568;27.824;2023-01-08T04:07:39;99638.25;;;6.83;100.00
9672;BME280;4874;43.568;27.824;2023-01-08T04:10:06;99625.59;;;6.88;100.00
9672;BME280;4874;43.568;27.824;2023-01-08T04:12:33;99644.38;;;6.96;100.00
9672;BME280;4874;43.568;27.824;2023-01-08T04:14:59;99646.09;;;6.97;100.00
9672;BME280;4874;43.568;27.824;2023-01-08T04:17:26;99648.91;;;7.07;100.00
9672;BME280;4874;43.568;27.824;2023-01-08T04:19:53;99647.66;;;7.00;100.00
9672;BME280;4874;43.568;27.824;2023-01-08T04:22:20;99649.88;;;6.93;100.00
9672;BME280;4874;43.568;27.824;2023-01-08T04:24:46;99648.16;;;6.92;100.00
9672;BME280;4874;43.568;27.824;2023-01-08T04:27:13;99658.63;;;6.81;100.00
9672;BME280;4874;43.568;27.824;2023-01-08T04:29:40;99629.16;;;6.62;100.00
9672;BME280;4874;43.568;27.824;2023-01-08T04:32:06;99661.75;;;6.74;100.00
9672;BME280;4874;43.568;27.824;2023-01-08T04:34:33;99661.56;;;6.64;100.00
9672;BME280;4874;43.568;27.824;2023-01-08T04:37:00;99659.41;;;6.57;100.00
9672;BME280;4874;43.568;27.824;2023-01-08T04:39:27;99633.31;;;6.40;100.00
9672;BME280;4874;43.568;27.824;2023-01-08T04:41:54;99646.19;;;6.32;100.00
9672;BME280;4874;43.568;27.824;2023-01-08T04:44:21;99656.41;;;6.36;100.00
9672;BME280;4874;43.568;27.824;2023-01-08T04:46:48;99662.00;;;6.32;100.00
9672;BME280;4874;43.568;27.824;2023-01-08T04:49:14;99654.94;;;6.32;100.00
9672;BME280;4874;43.568;27.824;2023-01-08T04:51:41;99651.31;;;6.60;100.00
9672;BME280;4874;43.568;27.824;2023-01-08T04:54:08;99655.13;;;6.29;100.00
9672;BME280;4874;43.568;27.824;2023-01-08T04:56:35;99652.16;;;6.21;100.00
9672;BME280;4874;43.568;27.824;2023-01-08T04:59:01;99655.28;;;6.40;100.00
9672;BME280;4874;43.568;27.824;2023-01-08T05:01:28;99664.69;;;6.18;100.00
9672;BME280;4874;43.568;27.824;2023-01-08T05:03:58;99671.84;;;6.16;100.00
9672;BME280;4874;43.568;27.824;2023-01-08T05:06:25;99667.38;;;6.30;100.00
9672;BME280;4874;43.568;27.824;2023-01-08T05:08:52;99669.69;;;6.22;100.00
9672;BME280;4874;43.568;27.824;2023-01-08T05:11:19;99680.00;;;6.25;100.00
9672;BME280;4874;43.568;27.824;2023-01-08T05:13:46;99659.41;;;6.57;100.00
9672;BME280;4874;43.568;27.824;2023-01-08T05:16:13;99672.59;;;6.18;100.00
9672;BME280;4874;43.568;27.824;2023-01-08T05:18:42;99642.03;;;6.15;100.00
9672;BME280;4874;43.568;27.824;2023-01-08T05:21:09;99672.69;;;6.43;100.00
9672;BME280;4874;43.568;27.824;2023-01-08T05:23:36;99653.38;;;6.42;100.00
9672;BME280;4874;43.568;27.824;2023-01-08T05:26:05;99674.59;;;6.41;100.00
9672;BME280;4874;43.568;27.824;2023-01-08T05:28:33;99649.03;;;6.41;100.00
9672;BME280;4874;43.568;27.824;2023-01-08T05:31:00;99676.47;;;6.39;100.00
9672;BME280;4874;43.568;27.824;2023-01-08T05:33:27;99670.13;;;6.29;100.00
9672;BME280;4874;43.568;27.824;2023-01-08T05:35:53;99667.38;;;6.30;100.00
9672;BME280;4874;43.568;27.824;2023-01-08T05:38:20;99636.22;;;6.10;100.00
9672;BME280;4874;43.568;27.824;2023-01-08T05:40:51;99670.22;;;6.27;100.00
9672;BME280;4874;43.568;27.824;2023-01-08T05:43:17;99627.66;;;6.07;100.00
9672;BME280;4874;43.568;27.824;2023-01-08T05:45:44;99668.78;;;6.48;100.00
9672;BME280;4874;43.568;27.824;2023-01-08T05:48:11;99645.22;;;6.33;100.00
9672;BME280;4874;43.568;27.824;2023-01-08T05:50:37;99678.19;;;6.26;100.00
9672;BME280;4874;43.568;27.824;2023-01-08T05:53:08;99676.88;;;6.06;100.00
9672;BME280;4874;43.568;27.824;2023-01-08T05:55:35;99672.69;;;6.16;100.00
9672;BME280;4874;43.568;27.824;2023-01-08T05:58:03;99675.50;;;6.27;100.00
9672;BME280;4874;43.568;27.824;2023-01-08T06:00:31;99680.59;;;6.43;100.00
9672;BME280;4874;43.568;27.824;2023-01-08T06:02:58;99685.28;;;6.25;100.00
9672;BME280;4874;43.568;27.824;2023-01-08T06:05:25;99674.97;;;6.35;100.00
9672;BME280;4874;43.568;27.824;2023-01-08T06:07:51;99673.31;;;6.46;100.00
9672;BME280;4874;43.568;27.824;2023-01-08T06:10:18;99674.25;;;6.84;100.00
9672;BME280;4874;43.568;27.824;2023-01-08T06:12:45;99672.22;;;6.63;100.00
9672;BME280;4874;43.568;27.824;2023-01-08T06:15:11;99680.59;;;6.82;100.00
9672;BME280;4874;43.568;27.824;2023-01-08T06:17:38;99684.19;;;6.93;100.00
9672;BME280;4874;43.568;27.824;2023-01-08T06:20:05;99679.13;;;7.15;100.00
9672;BME280;4874;43.568;27.824;2023-01-08T06:22:32;99673.63;;;7.18;100.00
9672;BME280;4874;43.568;27.824;2023-01-08T06:24:59;99679.44;;;7.11;100.00
9672;BME280;4874;43.568;27.824;2023-01-08T06:27:26;99676.28;;;7.31;100.00
9672;BME280;4874;43.568;27.824;2023-01-08T06:29:52;99675.53;;;7.42;100.00
9672;BME280;4874;43.568;27.824;2023-01-08T06:32:19;99674.66;;;7.41;100.00
9672;BME280;4874;43.568;27.824;2023-01-08T06:34:46;99674.88;;;7.51;100.00
9672;BME280;4874;43.568;27.824;2023-01-08T06:37:12;99659.47;;;7.32;100.00
9672;BME280;4874;43.568;27.824;2023-01-08T06:39:39;99663.81;;;7.33;100.00
9672;BME280;4874;43.568;27.824;2023-01-08T06:42:06;99669.56;;;7.63;100.00
9672;BME280;4874;43.568;27.824;2023-01-08T06:44:32;99673.13;;;7.75;100.00
9672;BME280;4874;43.568;27.824;2023-01-08T06:46:59;99670.00;;;7.57;100.00
9672;BME280;4874;43.568;27.824;2023-01-08T06:49:26;99658.59;;;7.57;100.00
9672;BME280;4874;43.568;27.824;2023-01-08T06:51:52;99679.03;;;7.78;100.00
9672;BME280;4874;43.568;27.824;2023-01-08T06:54:19;99679.88;;;7.91;100.00
9672;BME280;4874;43.568;27.824;2023-01-08T06:56:47;99663.03;;;7.56;100.00
9672;BME280;4874;43.568;27.824;2023-01-08T06:59:20;99676.72;;;7.86;100.00
9672;BME280;4874;43.568;27.824;2023-01-08T07:01:47;99684.69;;;7.97;100.00
9672;BME280;4874;43.568;27.824;2023-01-08T07:04:15;99660.47;;;7.80;100.00
9672;BME280;4874;43.568;27.824;2023-01-08T07:06:41;99678.34;;;8.00;100.00
9672;BME280;4874;43.568;27.824;2023-01-08T07:09:11;99639.31;;;7.80;100.00
9672;BME280;4874;43.568;27.824;2023-01-08T07:11:39;99684.19;;;7.92;100.00
9672;BME280;4874;43.568;27.824;2023-01-08T07:14:06;99695.78;;;8.02;100.00
9672;BME280;4874;43.568;27.824;2023-01-08T07:16:34;99629.00;;;7.52;100.00
9672;BME280;4874;43.568;27.824;2023-01-08T07:19:01;99694.44;;;7.97;100.00
9672;BME280;4874;43.568;27.824;2023-01-08T07:21:27;99665.91;;;8.13;100.00
9672;BME280;4874;43.568;27.824;2023-01-08T07:23:54;99692.56;;;7.86;100.00
9672;BME280;4874;43.568;27.824;2023-01-08T07:26:21;99666.97;;;7.87;100.00
9672;BME280;4874;43.568;27.824;2023-01-08T07:28:47;99692.66;;;8.21;100.00
9672;BME280;4874;43.568;27.824;2023-01-08T07:31:14;99705.44;;;7.91;100.00
9672;BME280;4874;43.568;27.824;2023-01-08T07:33:41;99705.59;;;8.25;100.00
9672;BME280;4874;43.568;27.824;2023-01-08T07:36:08;99699.13;;;8.29;100.00
9672;BME280;4874;43.568;27.824;2023-01-08T07:38:34;99693.84;;;8.17;100.00
9672;BME280;4874;43.568;27.824;2023-01-08T07:41:01;99695.84;;;7.90;100.00
9672;BME280;4874;43.568;27.824;2023-01-08T07:43:28;99704.19;;;8.20;100.00
9672;BME280;4874;43.568;27.824;2023-01-08T07:45:55;99710.56;;;8.17;100.00
9672;BME280;4874;43.568;27.824;2023-01-08T07:48:26;99714.78;;;8.20;100.00
9672;BME280;4874;43.568;27.824;2023-01-08T07:51:00;99700.13;;;8.03;100.00
9672;BME280;4874;43.568;27.824;2023-01-08T07:53:38;99710.31;;;7.97;100.00
9672;BME280;4874;43.568;27.824;2023-01-08T07:56:12;99720.00;;;8.09;100.00
9672;BME280;4874;43.568;27.824;2023-01-08T07:58:39;99714.19;;;8.40;100.00
9672;BME280;4874;43.568;27.824;2023-01-08T08:01:09;99718.44;;;8.43;100.00
9672;BME280;4874;43.568;27.824;2023-01-08T08:03:40;99708.56;;;8.45;100.00
9672;BME280;4874;43.568;27.824;2023-01-08T08:06:07;99699.38;;;8.61;100.00
9672;BME280;4874;43.568;27.824;2023-01-08T08:08:36;99713.16;;;8.77;100.00
9672;BME280;4874;43.568;27.824;2023-01-08T08:11:09;99704.13;;;8.69;100.00
9672;BME280;4874;43.568;27.824;2023-01-08T08:13:41;99715.31;;;8.72;100.00
9672;BME280;4874;43.568;27.824;2023-01-08T08:16:15;99708.31;;;8.71;100.00
9672;BME280;4874;43.568;27.824;2023-01-08T08:18:46;99713.00;;;9.02;100.00
9672;BME280;4874;43.568;27.824;2023-01-08T08:21:18;99704.16;;;9.25;100.00
9672;BME280;4874;43.568;27.824;2023-01-08T08:23:50;99702.94;;;9.18;100.00
9672;BME280;4874;43.568;27.824;2023-01-08T08:26:23;99712.88;;;9.04;100.00
9672;BME280;4874;43.568;27.824;2023-01-08T08:28:54;99706.59;;;8.94;100.00
9672;BME280;4874;43.568;27.824;2023-01-08T08:31:26;99714.84;;;9.13;100.00
9672;BME280;4874;43.568;27.824;2023-01-08T08:33:57;99719.38;;;9.00;100.00
9672;BME280;4874;43.568;27.824;2023-01-08T08:36:27;99720.13;;;9.13;100.00
9672;BME280;4874;43.568;27.824;2023-01-08T08:38:55;99695.75;;;8.86;100.00
9672;BME280;4874;43.568;27.824;2023-01-08T08:41:24;99711.66;;;8.97;100.00
9672;BME280;4874;43.568;27.824;2023-01-08T08:43:51;99700.50;;;9.15;100.00
9672;BME280;4874;43.568;27.824;2023-01-08T08:46:18;99704.19;;;8.91;100.00
9672;BME280;4874;43.568;27.824;2023-01-08T08:48:47;99706.78;;;9.14;100.00
9672;BME280;4874;43.568;27.824;2023-01-08T08:51:15;99713.81;;;9.48;100.00
9672;BME280;4874;43.568;27.824;2023-01-08T08:53:42;99701.66;;;9.46;100.00
9672;BME280;4874;43.568;27.824;2023-01-08T08:56:11;99694.28;;;9.49;100.00
9672;BME280;4874;43.568;27.824;2023-01-08T08:58:38;99706.47;;;9.63;100.00
9672;BME280;4874;43.568;27.824;2023-01-08T09:01:15;99692.13;;;9.66;100.00
9672;BME280;4874;43.568;27.824;2023-01-08T09:03:42;99683.94;;;9.35;100.00
9672;BME280;4874;43.568;27.824;2023-01-08T09:06:13;99684.19;;;9.55;100.00
9672;BME280;4874;43.568;27.824;2023-01-08T09:08:43;99679.94;;;9.74;100.00
9672;BME280;4874;43.568;27.824;2023-01-08T09:11:10;99682.97;;;9.70;100.00
9672;BME280;4874;43.568;27.824;2023-01-08T09:13:41;99671.88;;;9.76;100.00
9672;BME280;4874;43.568;27.824;2023-01-08T09:16:09;99674.72;;;10.17;100.00
9672;BME280;4874;43.568;27.824;2023-01-08T09:18:41;99676.66;;;10.04;100.00
9672;BME280;4874;43.568;27.824;2023-01-08T09:21:13;99663.19;;;9.74;100.00
9672;BME280;4874;43.568;27.824;2023-01-08T09:23:43;99665.38;;;9.58;100.00
9672;BME280;4874;43.568;27.824;2023-01-08T09:26:15;99653.66;;;9.93;100.00
9672;BME280;4874;43.568;27.824;2023-01-08T09:28:49;99646.88;;;10.00;100.00
9672;BME280;4874;43.568;27.824;2023-01-08T09:31:20;99659.03;;;10.25;100.00
9672;BME280;4874;43.568;27.824;2023-01-08T09:33:57;99641.44;;;10.55;100.00
9672;BME280;4874;43.568;27.824;2023-01-08T09:36:28;99642.47;;;10.32;100.00
9672;BME280;4874;43.568;27.824;2023-01-08T09:39:03;99633.38;;;10.46;100.00
9672;BME280;4874;43.568;27.824;2023-01-08T09:41:40;99615.09;;;10.32;100.00
9672;BME280;4874;43.568;27.824;2023-01-08T09:44:22;99619.84;;;10.49;100.00
9672;BME280;4874;43.568;27.824;2023-01-08T09:46:49;99628.97;;;10.56;100.00
9672;BME280;4874;43.568;27.824;2023-01-08T09:49:42;99627.00;;;10.90;100.00
9672;BME280;4874;43.568;27.824;2023-01-08T09:52:12;99627.03;;;10.99;100.00
9672;BME280;4874;43.568;27.824;2023-01-08T09:54:39;99615.94;;;10.85;100.00
9672;BME280;4874;43.568;27.824;2023-01-08T09:57:12;99623.22;;;10.51;100.00
9672;BME280;4874;43.568;27.824;2023-01-08T09:59:42;99586.50;;;10.56;100.00
9672;BME280;4874;43.568;27.824;2023-01-08T10:02:15;99597.19;;;10.86;100.00
9672;BME280;4874;43.568;27.824;2023-01-08T10:04:42;99618.44;;;11.07;100.00
9672;BME280;4874;43.568;27.824;2023-01-08T10:07:18;99606.03;;;11.17;100.00
9672;BME280;4874;43.568;27.824;2023-01-08T10:09:47;99608.97;;;11.14;100.00
9672;BME280;4874;43.568;27.824;2023-01-08T10:12:29;99601.63;;;10.76;100.00
9672;BME280;4874;43.568;27.824;2023-01-08T10:15:00;99575.69;;;10.68;100.00
9672;BME280;4874;43.568;27.824;2023-01-08T10:17:36;99577.16;;;11.03;100.00
9672;BME280;4874;43.568;27.824;2023-01-08T10:20:17;99577.22;;;11.12;100.00
9672;BME280;4874;43.568;27.824;2023-01-08T10:22:45;99595.59;;;11.04;100.00
9672;BME280;4874;43.568;27.824;2023-01-08T10:25:26;99587.84;;;11.12;100.00
9672;BME280;4874;43.568;27.824;2023-01-08T10:27:57;99575.00;;;11.17;100.00
9672;BME280;4874;43.568;27.824;2023-01-08T10:33:12;99568.19;;;11.34;100.00
9672;BME280;4874;43.568;27.824;2023-01-08T10:35:41;99556.56;;;11.25;100.00
9672;BME280;4874;43.568;27.824;2023-01-08T10:41:27;99551.81;;;11.29;100.00
9672;BME280;4874;43.568;27.824;2023-01-08T10:44:03;99568.13;;;11.54;100.00
9672;BME280;4874;43.568;27.824;2023-01-08T10:46:33;99551.75;;;11.59;100.00
9672;BME280;4874;43.568;27.824;2023-01-08T10:49:04;99525.13;;;11.40;100.00
9672;BME280;4874;43.568;27.824;2023-01-08T10:51:32;99553.25;;;11.82;100.00
9672;BME280;4874;43.568;27.824;2023-01-08T10:54:12;99552.53;;;11.80;100.00
9672;BME280;4874;43.568;27.824;2023-01-08T10:56:41;99546.13;;;11.92;100.00
9672;BME280;4874;43.568;27.824;2023-01-08T10:59:19;99531.84;;;12.03;100.00
9672;BME280;4874;43.568;27.824;2023-01-08T11:01:47;99542.47;;;12.31;100.00
9672;BME280;4874;43.568;27.824;2023-01-08T11:04:20;99530.97;;;12.31;100.00
9672;BME280;4874;43.568;27.824;2023-01-08T11:06:48;99548.09;;;12.28;100.00
9672;BME280;4874;43.568;27.824;2023-01-08T11:09:22;99550.06;;;12.17;100.00
9672;BME280;4874;43.568;27.824;2023-01-08T11:11:49;99540.25;;;12.27;100.00
9672;BME280;4874;43.568;27.824;2023-01-08T11:16:43;99539.81;;;12.41;100.00
9672;BME280;4874;43.568;27.824;2023-01-08T11:19:18;99525.38;;;12.34;100.00
9672;BME280;4874;43.568;27.824;2023-01-08T11:22:00;99531.00;;;12.12;100.00
9672;BME280;4874;43.568;27.824;2023-01-08T11:24:29;99532.69;;;12.03;100.00
9672;BME280;4874;43.568;27.824;2023-01-08T11:27:27;99532.25;;;11.89;100.00
9672;BME280;4874;43.568;27.824;2023-01-08T11:35:28;99539.38;;;11.88;100.00
9672;BME280;4874;43.568;27.824;2023-01-08T11:37:58;99523.72;;;11.95;100.00
9672;BME280;4874;43.568;27.824;2023-01-08T11:45:53;99518.25;;;12.06;100.00
9672;BME280;4874;43.568;27.824;2023-01-08T11:51:02;99525.22;;;12.45;100.00
9672;BME280;4874;43.568;27.824;2023-01-08T11:53:36;99530.00;;;11.84;100.00
9672;BME280;4874;43.568;27.824;2023-01-08T12:05:27;99530.09;;;12.59;100.00
9672;BME280;4874;43.568;27.824;2023-01-08T12:11:06;99519.50;;;12.95;100.00
9672;BME280;4874;43.568;27.824;2023-01-08T12:13:55;99516.53;;;13.35;100.00
9672;BME280;4874;43.568;27.824;2023-01-08T12:19:38;99508.56;;;13.53;100.00
9672;BME280;4874;43.568;27.824;2023-01-08T12:27:43;99480.09;;;12.89;100.00
9672;BME280;4874;43.568;27.824;2023-01-08T12:35:35;99507.41;;;13.38;100.00
9672;BME280;4874;43.568;27.824;2023-01-08T12:40:52;99501.22;;;13.10;100.00
9672;BME280;4874;43.568;27.824;2023-01-08T12:43:29;99502.00;;;11.99;100.00
9672;BME280;4874;43.568;27.824;2023-01-08T12:45:58;99481.66;;;12.17;100.00
9672;BME280;4874;43.568;27.824;2023-01-08T12:48:29;99493.00;;;12.38;100.00
9672;BME280;4874;43.568;27.824;2023-01-08T12:51:18;99476.22;;;12.74;100.00
9672;BME280;4874;43.568;27.824;2023-01-08T13:01:56;99496.25;;;12.13;100.00
9672;BME280;4874;43.568;27.824;2023-01-08T13:04:25;99486.88;;;12.09;100.00
9672;BME280;4874;43.568;27.824;2023-01-08T13:07:03;99477.03;;;12.38;100.00
9672;BME280;4874;43.568;27.824;2023-01-08T13:09:31;99488.38;;;12.31;100.00
9672;BME280;4874;43.568;27.824;2023-01-08T13:11:59;99431.84;;;11.62;100.00
9672;BME280;4874;43.568;27.824;2023-01-08T13:14:26;99490.66;;;11.68;100.00
9672;BME280;4874;43.568;27.824;2023-01-08T13:17:02;99482.25;;;11.73;100.00
9672;BME280;4874;43.568;27.824;2023-01-08T13:19:38;99455.00;;;11.22;100.00
9672;BME280;4874;43.568;27.824;2023-01-08T13:25:26;99493.44;;;12.34;100.00
9672;BME280;4874;43.568;27.824;2023-01-08T13:27:54;99491.47;;;12.36;100.00
9672;BME280;4874;43.568;27.824;2023-01-08T13:30:39;99490.25;;;12.67;100.00
9672;BME280;4874;43.568;27.824;2023-01-08T13:33:40;99489.69;;;12.08;100.00
9672;BME280;4874;43.568;27.824;2023-01-08T13:36:14;99496.25;;;11.75;100.00
9672;BME280;4874;43.568;27.824;2023-01-08T13:38:43;99497.53;;;11.80;100.00
9672;BME280;4874;43.568;27.824;2023-01-08T13:41:30;99502.31;;;11.37;100.00
9672;BME280;4874;43.568;27.824;2023-01-08T13:44:12;99510.81;;;11.31;100.00
9672;BME280;4874;43.568;27.824;2023-01-08T13:46:41;99514.25;;;11.13;100.00
9672;BME280;4874;43.568;27.824;2023-01-08T13:49:22;99521.78;;;11.08;100.00
9672;BME280;4874;43.568;27.824;2023-01-08T13:51:52;99517.66;;;10.85;100.00
9672;BME280;4874;43.568;27.824;2023-01-08T13:54:38;99532.69;;;10.75;100.00
9672;BME280;4874;43.568;27.824;2023-01-08T13:57:16;99531.59;;;10.56;100.00
9672;BME280;4874;43.568;27.824;2023-01-08T13:59:52;99521.56;;;10.60;100.00
9672;BME280;4874;43.568;27.824;2023-01-08T14:02:27;99525.84;;;10.31;100.00
9672;BME280;4874;43.568;27.824;2023-01-08T14:04:56;99502.09;;;10.09;100.00
9672;BME280;4874;43.568;27.824;2023-01-08T14:07:24;99532.94;;;10.10;100.00
9672;BME280;4874;43.568;27.824;2023-01-08T14:09:51;99531.72;;;10.03;100.00
9672;BME280;4874;43.568;27.824;2023-01-08T14:12:23;99541.94;;;9.87;100.00
9672;BME280;4874;43.568;27.824;2023-01-08T14:14:53;99550.97;;;9.84;100.00
9672;BME280;4874;43.568;27.824;2023-01-08T14:17:29;99556.19;;;10.06;100.00
9672;BME280;4874;43.568;27.824;2023-01-08T14:19:57;99541.13;;;10.07;100.00
9672;BME280;4874;43.568;27.824;2023-01-08T14:22:34;99537.75;;;10.16;100.00
9672;BME280;4874;43.568;27.824;2023-01-08T14:25:03;99545.84;;;10.35;100.00
9672;BME280;4874;43.568;27.824;2023-01-08T14:27:32;99490.16;;;9.72;100.00
9672;BME280;4874;43.568;27.824;2023-01-08T14:30:00;99561.53;;;9.52;100.00
9672;BME280;4874;43.568;27.824;2023-01-08T14:32:27;99564.66;;;9.46;100.00
9672;BME280;4874;43.568;27.824;2023-01-08T14:34:56;99556.63;;;9.37;100.00
9672;BME280;4874;43.568;27.824;2023-01-08T14:37:23;99535.47;;;9.15;100.00
9672;BME280;4874;43.568;27.824;2023-01-08T14:39:50;99544.22;;;9.15;100.00
9672;BME280;4874;43.568;27.824;2023-01-08T14:42:35;99554.13;;;9.13;100.00
9672;BME280;4874;43.568;27.824;2023-01-08T14:47:37;99567.00;;;8.96;100.00
9672;BME280;4874;43.568;27.824;2023-01-08T14:50:25;99555.78;;;9.03;100.00